createdAt,value
2019-05-16T00:00:29.408Z,3.43
2019-05-16T00:02:54.886Z,3.53
2019-05-16T00:05:20.493Z,5.23
2019-05-16T00:07:45.856Z,4.77
2019-05-16T00:10:11.399Z,2.70
2019-05-16T00:12:39.717Z,2.17
2019-05-16T00:15:04.034Z,4.67
2019-05-16T00:17:29.550Z,5.60
2019-05-16T00:19:54.928Z,4.57
2019-05-16T00:22:20.277Z,4.87
2019-05-16T00:24:45.814Z,4.30
2019-05-16T00:27:11.230Z,4.73
2019-05-16T00:29:38.328Z,6.30
2019-05-16T00:32:04.107Z,7.43
2019-05-16T00:34:29.552Z,6.20
2019-05-16T00:36:54.975Z,3.87
2019-05-16T00:39:20.337Z,6.47
2019-05-16T00:41:47.893Z,5.97
2019-05-16T00:44:15.138Z,5.93
2019-05-16T00:46:40.855Z,6.37
2019-05-16T00:49:08.304Z,7.93
2019-05-16T00:51:34.327Z,4.50
2019-05-16T00:53:59.666Z,3.83
2019-05-16T00:56:25.581Z,5.80
2019-05-16T00:58:51.425Z,6.33
2019-05-16T01:01:18.944Z,5.57
2019-05-16T01:03:44.577Z,4.00
2019-05-16T01:06:19.173Z,6.20
2019-05-16T01:08:38.577Z,7.83
2019-05-16T01:11:04.802Z,6.33
2019-05-16T01:13:30.158Z,9.43
2019-05-16T01:15:57.777Z,4.50
2019-05-16T01:18:22.629Z,7.47
2019-05-16T01:20:48.274Z,7.33
2019-05-16T01:23:13.770Z,6.67
2019-05-16T01:25:40.598Z,5.20
2019-05-16T01:28:06.087Z,6.33
2019-05-16T01:30:31.516Z,6.07
2019-05-16T01:32:58.288Z,3.90
2019-05-16T01:35:23.768Z,6.70
2019-05-16T01:37:49.159Z,7.93
2019-05-16T01:40:15.131Z,6.47
2019-05-16T01:42:40.482Z,8.13
2019-05-16T01:45:08.097Z,9.13
2019-05-16T01:47:32.891Z,6.07
2019-05-16T01:49:58.278Z,5.73
2019-05-16T01:52:23.616Z,4.37
2019-05-16T01:54:48.994Z,6.20
2019-05-16T01:57:14.542Z,4.60
2019-05-16T01:59:39.946Z,7.13
2019-05-16T02:02:05.314Z,5.47
2019-05-16T02:04:30.673Z,6.53
2019-05-16T02:06:58.273Z,5.20
2019-05-16T02:09:23.137Z,4.90
2019-05-16T02:11:48.519Z,5.03
2019-05-16T02:14:14.829Z,9.87
2019-05-16T02:16:40.223Z,6.63
2019-05-16T02:19:07.847Z,8.87
2019-05-16T02:21:32.722Z,7.93
2019-05-16T02:23:58.969Z,6.23
2019-05-16T02:26:25.054Z,3.77
2019-05-16T02:28:51.095Z,5.73
2019-05-16T02:31:16.464Z,7.27
2019-05-16T02:33:41.840Z,8.30
2019-05-16T02:36:10.653Z,5.63
2019-05-16T02:38:34.179Z,8.23
2019-05-16T02:41:02.639Z,5.70
2019-05-16T02:43:26.829Z,7.03
2019-05-16T02:45:52.516Z,6.23
2019-05-16T02:48:20.939Z,9.80
2019-05-16T02:50:44.911Z,8.33
2019-05-16T02:53:12.752Z,6.43
2019-05-16T02:55:37.267Z,4.00
2019-05-16T02:58:02.641Z,5.33
2019-05-16T03:00:36.050Z,9.10
2019-05-16T03:03:01.467Z,5.93
2019-05-16T03:05:30.412Z,5.13
2019-05-16T03:07:54.980Z,5.30
2019-05-16T03:10:20.500Z,6.87
2019-05-16T03:12:47.460Z,10.57
2019-05-16T03:15:12.956Z,6.50
2019-05-16T03:17:41.236Z,7.53
2019-05-16T03:20:07.012Z,7.90
2019-05-16T03:22:32.385Z,11.70
2019-05-16T03:25:00.682Z,6.40
2019-05-16T03:27:24.778Z,9.67
2019-05-16T03:29:50.736Z,7.03
2019-05-16T03:32:16.233Z,10.53
2019-05-16T03:34:43.879Z,10.07
2019-05-16T03:37:14.042Z,7.30
2019-05-16T03:39:36.807Z,7.10
2019-05-16T03:42:02.157Z,9.20
2019-05-16T03:44:27.529Z,5.90
2019-05-16T03:46:52.907Z,6.50
2019-05-16T03:49:21.142Z,8.20
2019-05-16T03:51:46.206Z,8.43
2019-05-16T03:54:12.555Z,7.53
2019-05-16T03:56:40.538Z,8.47
2019-05-16T03:59:05.120Z,8.03
2019-05-16T04:01:31.297Z,6.30
2019-05-16T04:03:56.936Z,6.27
2019-05-16T04:06:22.395Z,8.60
2019-05-16T04:08:50.908Z,6.50
2019-05-16T04:11:18.209Z,4.93
2019-05-16T04:13:41.766Z,5.83
2019-05-16T04:16:07.183Z,6.13
2019-05-16T04:18:32.511Z,5.80
2019-05-16T04:21:01.073Z,8.00
2019-05-16T04:23:25.910Z,8.20
2019-05-16T04:25:53.069Z,6.50
2019-05-16T04:28:21.364Z,4.73
2019-05-16T04:30:45.224Z,5.83
2019-05-16T04:33:11.047Z,6.03
2019-05-16T04:35:36.437Z,5.67
2019-05-16T04:38:02.094Z,7.83
2019-05-16T04:40:27.475Z,5.50
2019-05-16T04:42:52.859Z,4.77
2019-05-16T04:45:21.049Z,4.80
2019-05-16T04:47:45.220Z,5.67
2019-05-16T04:50:12.270Z,6.20
2019-05-16T04:52:37.718Z,7.00
2019-05-16T04:55:03.091Z,5.90
2019-05-16T04:57:31.378Z,3.97
2019-05-16T04:59:56.407Z,5.37
2019-05-16T05:02:21.747Z,6.53
2019-05-16T05:04:47.114Z,3.73
2019-05-16T05:07:12.442Z,3.43
2019-05-16T05:09:40.621Z,3.33
2019-05-16T05:12:05.025Z,3.83
2019-05-16T05:14:30.893Z,6.40
2019-05-16T05:16:56.287Z,4.27
2019-05-16T05:19:21.639Z,2.77
2019-05-16T05:21:47.012Z,5.07
2019-05-16T05:24:12.354Z,2.93
2019-05-16T05:26:37.728Z,2.70
2019-05-16T05:29:03.066Z,4.40
2019-05-16T05:31:34.339Z,5.10
2019-05-16T05:33:55.477Z,4.73
2019-05-16T05:36:21.226Z,3.23
2019-05-16T05:38:48.373Z,4.60
2019-05-16T05:41:13.618Z,4.50
2019-05-16T05:43:39.723Z,3.70
2019-05-16T05:46:06.291Z,3.63
2019-05-16T05:48:31.685Z,4.90
2019-05-16T05:50:57.039Z,6.30
2019-05-16T05:53:22.446Z,4.00
2019-05-16T05:55:50.657Z,4.70
2019-05-16T05:58:15.107Z,5.07
2019-05-16T06:00:40.666Z,6.20
2019-05-16T06:03:06.149Z,3.93
2019-05-16T06:05:32.586Z,2.83
2019-05-16T06:08:00.170Z,4.33
2019-05-16T06:10:24.930Z,4.37
2019-05-16T06:12:50.322Z,3.57
2019-05-16T06:15:15.874Z,4.13
2019-05-16T06:17:41.313Z,4.67
2019-05-16T06:20:14.031Z,4.77
2019-05-16T06:22:36.494Z,3.43
2019-05-16T06:25:02.146Z,4.77
2019-05-16T06:27:30.216Z,5.60
2019-05-16T06:29:57.373Z,5.47
2019-05-16T06:32:23.425Z,3.03
2019-05-16T06:34:50.642Z,2.60
2019-05-16T06:37:15.788Z,4.97
2019-05-16T06:39:45.342Z,2.90
2019-05-16T06:42:09.854Z,3.93
2019-05-16T06:44:35.335Z,3.80
2019-05-16T06:47:15.913Z,4.00
2019-05-16T06:49:27.738Z,5.10
2019-05-16T06:51:54.735Z,3.77
2019-05-16T06:54:21.057Z,3.10
2019-05-16T06:56:46.390Z,3.37
2019-05-16T06:59:12.826Z,3.47
2019-05-16T07:01:40.266Z,3.70
2019-05-16T07:04:05.225Z,4.63
2019-05-16T07:06:47.568Z,3.37
2019-05-16T07:09:00.891Z,2.97
2019-05-16T07:11:25.583Z,3.67
2019-05-16T07:13:52.039Z,4.20
2019-05-16T07:16:17.626Z,5.17
2019-05-16T07:18:43.051Z,5.07
2019-05-16T07:21:10.650Z,5.57
2019-05-16T07:23:35.479Z,3.30
2019-05-16T07:26:01.008Z,5.63
2019-05-16T07:28:26.298Z,6.60
2019-05-16T07:30:51.683Z,7.37
2019-05-16T07:33:17.045Z,4.47
2019-05-16T07:35:42.430Z,8.20
2019-05-16T07:38:07.766Z,7.07
2019-05-16T07:40:33.257Z,5.10
2019-05-16T07:43:00.063Z,7.40
2019-05-16T07:45:25.474Z,6.83
2019-05-16T07:47:51.158Z,7.70
2019-05-16T07:50:16.642Z,10.60
2019-05-16T07:52:41.762Z,8.83
2019-05-16T07:55:07.019Z,8.80
2019-05-16T07:57:32.149Z,10.20
2019-05-16T07:59:57.239Z,6.47
2019-05-16T08:02:22.358Z,8.10
2019-05-16T08:04:50.015Z,12.93
2019-05-16T08:07:14.502Z,19.07
2019-05-16T08:09:39.772Z,7.93
2019-05-16T08:12:06.006Z,9.83
2019-05-16T08:14:34.970Z,6.27
2019-05-16T08:17:00.960Z,8.27
2019-05-16T08:19:25.369Z,9.27
2019-05-16T08:21:50.754Z,8.63
2019-05-16T08:24:15.929Z,8.07
2019-05-16T08:26:43.045Z,4.33
2019-05-16T08:29:07.794Z,8.30
2019-05-16T08:31:32.924Z,8.20
2019-05-16T08:34:00.895Z,8.60
2019-05-16T08:36:24.896Z,6.33
2019-05-16T08:38:51.536Z,13.20
2019-05-16T08:41:17.393Z,7.30
2019-05-16T08:43:43.567Z,5.17
2019-05-16T08:46:12.360Z,8.00
2019-05-16T08:48:35.494Z,6.70
2019-05-16T08:53:31.378Z,8.97
2019-05-16T08:55:54.223Z,6.67
2019-05-16T08:58:23.533Z,5.83
2019-05-16T09:00:46.031Z,7.70
2019-05-16T09:03:12.314Z,4.07
2019-05-16T09:05:37.758Z,4.77
2019-05-16T09:08:03.120Z,4.53
2019-05-16T09:10:50.027Z,4.73
2019-05-16T09:12:57.208Z,5.10
2019-05-16T09:15:21.719Z,3.63
2019-05-16T09:17:47.572Z,5.73
2019-05-16T09:18:39.074Z,4.87
2019-05-16T09:20:13.815Z,3.23
2019-05-16T09:22:38.922Z,4.17
2019-05-16T09:25:04.051Z,4.53
2019-05-16T09:27:30.147Z,3.70
2019-05-16T09:29:56.750Z,2.77
2019-05-16T09:32:22.214Z,3.40
2019-05-16T09:34:47.960Z,4.53
2019-05-16T09:37:13.334Z,5.20
2019-05-16T09:39:38.439Z,4.80
2019-05-16T09:42:03.554Z,4.13
2019-05-16T09:44:28.683Z,4.00
2019-05-16T09:46:53.794Z,5.60
2019-05-16T09:49:28.752Z,5.97
2019-05-16T09:51:46.623Z,5.33
2019-05-16T09:54:11.925Z,5.60
2019-05-16T09:56:37.409Z,8.37
2019-05-16T09:59:02.528Z,9.37
2019-05-16T10:01:27.783Z,8.47
2019-05-16T10:03:52.854Z,7.50
2019-05-16T10:06:19.204Z,7.77
2019-05-16T10:08:46.423Z,5.23
2019-05-16T10:11:11.276Z,6.37
2019-05-16T10:13:37.542Z,5.50
2019-05-16T10:16:02.917Z,7.27
2019-05-16T10:18:29.025Z,4.37
2019-05-16T10:20:54.143Z,4.83
2019-05-16T10:23:19.369Z,5.20
2019-05-16T10:25:44.514Z,3.97
2019-05-16T10:28:09.690Z,7.43
2019-05-16T10:30:34.804Z,3.03
2019-05-16T10:33:01.018Z,4.47
2019-05-16T10:35:29.311Z,4.20
2019-05-16T10:37:53.070Z,5.63
2019-05-16T10:40:18.584Z,5.27
2019-05-16T10:42:43.846Z,5.27
2019-05-16T10:45:09.269Z,3.93
2019-05-16T10:47:36.916Z,5.50
2019-05-16T10:50:02.099Z,4.53
2019-05-16T10:52:27.235Z,3.80
2019-05-16T10:54:58.439Z,5.17
2019-05-16T10:57:19.443Z,3.63
2019-05-16T11:00:05.157Z,3.60
2019-05-16T11:02:11.687Z,8.10
2019-05-16T11:04:52.893Z,3.43
2019-05-16T11:07:03.603Z,3.50
2019-05-16T11:09:28.783Z,3.53
2019-05-16T11:11:53.932Z,4.63
2019-05-16T11:14:19.030Z,3.80
2019-05-16T11:16:44.284Z,2.67
2019-05-16T11:19:17.221Z,3.70
2019-05-16T11:21:38.000Z,2.77
2019-05-16T11:24:03.166Z,2.80
2019-05-16T11:26:30.236Z,2.97
2019-05-16T11:28:56.765Z,2.43
2019-05-16T11:31:21.916Z,4.20
2019-05-16T11:33:47.825Z,2.40
2019-05-16T11:36:13.209Z,3.23
2019-05-16T11:38:38.892Z,2.57
2019-05-16T11:41:04.040Z,3.30
2019-05-16T11:43:29.139Z,2.50
2019-05-16T11:45:54.242Z,2.73
2019-05-16T11:48:19.395Z,3.77
2019-05-16T11:50:44.516Z,3.37
2019-05-16T11:53:09.675Z,2.90
2019-05-16T11:55:40.457Z,2.60
2019-05-16T11:58:01.654Z,2.20
2019-05-16T12:00:30.580Z,2.20
2019-05-16T12:02:53.509Z,3.50
2019-05-16T12:05:19.254Z,4.17
2019-05-16T12:07:47.872Z,3.00
2019-05-16T12:10:11.730Z,3.37
2019-05-16T12:12:37.141Z,4.93
2019-05-16T12:15:02.310Z,3.40
2019-05-16T12:17:28.043Z,3.17
2019-05-16T12:19:53.253Z,5.17
2019-05-16T12:22:18.499Z,3.90
2019-05-16T12:24:43.574Z,6.27
2019-05-16T12:27:08.733Z,6.13
2019-05-16T12:29:33.807Z,5.60
2019-05-16T12:32:02.724Z,5.50
2019-05-16T12:34:25.638Z,5.93
2019-05-16T12:36:50.744Z,5.10
2019-05-16T12:39:17.255Z,7.07
2019-05-16T12:41:42.508Z,8.40
2019-05-16T12:44:07.729Z,7.90
2019-05-16T12:46:32.910Z,5.70
2019-05-16T12:48:58.065Z,8.90
2019-05-16T12:51:23.171Z,7.43
2019-05-16T12:53:48.291Z,7.97
2019-05-16T12:56:13.423Z,8.57
2019-05-16T12:58:41.925Z,8.73
2019-05-16T13:01:07.459Z,7.93
2019-05-16T13:03:31.994Z,10.77
2019-05-16T13:05:57.267Z,8.47
2019-05-16T13:08:22.463Z,8.33
2019-05-16T13:10:47.570Z,10.83
2019-05-16T13:13:12.679Z,12.67
2019-05-16T13:15:40.220Z,11.90
2019-05-16T13:18:07.679Z,10.37
2019-05-16T13:20:31.555Z,10.37
2019-05-16T13:22:56.943Z,11.77
2019-05-16T13:25:22.038Z,13.17
2019-05-16T13:27:47.639Z,13.10
2019-05-16T13:30:13.357Z,13.37
2019-05-16T13:32:38.496Z,15.40
2019-05-16T13:35:07.431Z,15.73
2019-05-16T13:37:31.555Z,13.43
2019-05-16T13:39:56.948Z,12.23
2019-05-16T13:42:22.183Z,16.07
2019-05-16T13:44:47.338Z,16.00
2019-05-16T13:47:12.741Z,13.50
2019-05-16T13:49:38.534Z,13.57
2019-05-16T13:52:04.063Z,15.90
2019-05-16T13:54:29.248Z,11.50
2019-05-16T13:56:57.081Z,13.20
2019-05-16T13:59:21.136Z,14.30
2019-05-16T14:01:46.283Z,13.17
2019-05-16T14:04:11.481Z,13.20
2019-05-16T14:06:36.942Z,13.50
2019-05-16T14:09:02.111Z,13.63
2019-05-16T14:11:28.397Z,13.47
2019-05-16T14:13:53.523Z,13.83
2019-05-16T14:16:19.625Z,14.67
2019-05-16T14:18:46.875Z,12.60
2019-05-16T14:21:11.842Z,13.97
2019-05-16T14:23:38.115Z,14.23
2019-05-16T14:26:03.515Z,13.30
2019-05-16T14:28:28.703Z,15.77
2019-05-16T14:30:54.126Z,13.37
2019-05-16T14:33:19.358Z,14.83
2019-05-16T14:35:47.004Z,13.70
2019-05-16T14:38:11.202Z,12.70
2019-05-16T14:40:37.378Z,14.20
2019-05-16T14:43:02.757Z,15.03
2019-05-16T14:45:27.874Z,13.90
2019-05-16T14:47:53.033Z,17.13
2019-05-16T14:50:18.225Z,13.70
2019-05-16T14:52:44.307Z,14.30
2019-05-16T14:55:09.515Z,15.07
2019-05-16T14:57:36.606Z,14.43
2019-05-16T15:00:01.358Z,16.10
2019-05-16T15:02:27.775Z,13.37
2019-05-16T15:04:53.174Z,15.90
2019-05-16T15:07:19.345Z,16.83
2019-05-16T15:09:46.987Z,14.73
2019-05-16T15:12:11.537Z,15.37
2019-05-16T15:14:37.455Z,16.50
2019-05-16T15:17:02.903Z,16.03
2019-05-16T15:19:29.289Z,17.87
2019-05-16T15:21:56.747Z,16.40
2019-05-16T15:24:21.542Z,13.27
2019-05-16T15:26:47.241Z,17.73
2019-05-16T15:29:12.474Z,16.30
2019-05-16T15:31:39.461Z,17.97
2019-05-16T15:34:04.448Z,15.03
2019-05-16T15:36:29.564Z,15.40
2019-05-16T15:38:56.706Z,15.57
2019-05-16T15:41:21.452Z,16.30
2019-05-16T15:43:46.562Z,16.87
2019-05-16T15:46:11.754Z,17.27
2019-05-16T15:48:37.217Z,16.37
2019-05-16T15:51:03.427Z,16.57
2019-05-16T15:53:29.547Z,18.63
2019-05-16T15:55:54.819Z,16.40
2019-05-16T15:58:32.190Z,15.80
2019-05-16T16:00:57.808Z,16.23
2019-05-16T16:03:23.220Z,17.97
2019-05-16T16:05:48.458Z,17.73
2019-05-16T16:08:13.570Z,14.17
2019-05-16T16:10:39.521Z,19.53
2019-05-16T16:13:06.756Z,17.10
2019-05-16T16:15:32.481Z,18.23
2019-05-16T16:17:57.596Z,17.13
2019-05-16T16:20:23.710Z,19.77
2019-05-16T16:22:48.814Z,21.20
2019-05-16T16:25:14.002Z,20.67
2019-05-16T16:27:40.298Z,19.63
2019-05-16T16:30:06.958Z,19.13
2019-05-16T16:32:32.162Z,20.77
2019-05-16T16:34:57.660Z,25.30
2019-05-16T16:37:23.723Z,20.17
2019-05-16T16:39:48.828Z,23.10
2019-05-16T16:42:13.982Z,23.40
2019-05-16T16:44:39.110Z,24.40
2019-05-16T16:47:06.577Z,21.43
2019-05-16T16:49:31.506Z,24.77
2019-05-16T16:51:57.364Z,23.00
2019-05-16T16:54:22.848Z,22.60
2019-05-16T16:56:48.096Z,23.67
2019-05-16T16:59:13.478Z,24.93
2019-05-16T17:01:38.575Z,24.53
2019-05-16T17:04:03.802Z,24.63
2019-05-16T17:06:28.929Z,22.77
2019-05-16T17:08:56.646Z,23.50
2019-05-16T17:11:20.814Z,20.97
2019-05-16T17:13:47.295Z,23.23
2019-05-16T17:16:25.264Z,20.97
2019-05-16T17:18:39.282Z,21.77
2019-05-16T17:21:04.411Z,25.67
2019-05-16T17:23:29.531Z,25.53
2019-05-16T17:25:56.754Z,28.40
2019-05-16T17:28:21.411Z,24.33
2019-05-16T17:30:47.221Z,21.87
2019-05-16T17:33:12.921Z,28.90
2019-05-16T17:35:39.126Z,23.60
2019-05-16T17:38:06.493Z,23.13
2019-05-16T17:40:31.239Z,20.63
2019-05-16T17:42:56.887Z,24.47
2019-05-16T17:45:22.438Z,20.97
2019-05-16T17:47:47.605Z,25.20
2019-05-16T17:50:13.275Z,23.80
2019-05-16T17:52:38.401Z,28.30
2019-05-16T17:55:03.621Z,27.50
2019-05-16T17:57:30.166Z,24.90
2019-05-16T17:59:57.459Z,27.53
2019-05-16T18:02:22.143Z,28.93
2019-05-16T18:04:47.297Z,27.03
2019-05-16T18:07:12.418Z,29.43
2019-05-16T18:09:37.557Z,31.40
2019-05-16T18:12:02.959Z,29.10
2019-05-16T18:14:28.078Z,29.27
2019-05-16T18:16:58.754Z,27.87
2019-05-16T18:19:19.950Z,33.70
2019-05-16T18:21:46.431Z,33.20
2019-05-16T18:24:11.592Z,33.97
2019-05-16T18:26:37.366Z,33.03
2019-05-16T18:29:02.521Z,27.13
2019-05-16T18:31:27.697Z,32.23
2019-05-16T18:33:52.807Z,27.47
2019-05-16T18:36:18.142Z,27.00
2019-05-16T18:38:43.292Z,32.13
2019-05-16T18:41:08.392Z,30.57
2019-05-16T18:43:33.593Z,33.10
2019-05-16T18:45:58.722Z,31.63
2019-05-16T18:48:23.832Z,30.03
2019-05-16T18:50:48.913Z,31.93
2019-05-16T18:53:14.079Z,32.17
2019-05-16T18:55:39.195Z,36.90
2019-05-16T18:58:07.530Z,34.63
2019-05-16T19:00:31.286Z,35.37
2019-05-16T19:02:59.191Z,34.90
2019-05-16T19:05:23.135Z,30.47
2019-05-16T19:07:48.311Z,39.50
2019-05-16T19:10:13.547Z,36.10
2019-05-16T19:12:38.643Z,34.57
2019-05-16T19:15:07.123Z,39.73
2019-05-16T19:17:32.409Z,43.47
2019-05-16T19:19:57.527Z,43.30
2019-05-16T19:22:22.669Z,42.37
2019-05-16T19:24:47.775Z,35.73
2019-05-16T19:27:13.152Z,31.80
2019-05-16T19:29:38.286Z,31.87
2019-05-16T19:32:03.390Z,38.10
2019-05-16T19:34:28.506Z,39.73
2019-05-16T19:36:53.718Z,38.50
2019-05-16T19:39:18.832Z,39.13
2019-05-16T19:41:46.474Z,26.33
2019-05-16T19:44:10.818Z,36.97
2019-05-16T19:46:38.606Z,35.40
2019-05-16T19:49:02.694Z,28.77
2019-05-16T19:51:27.833Z,28.60
2019-05-16T19:53:52.960Z,33.17
2019-05-16T19:56:18.050Z,31.60
2019-05-16T19:58:43.426Z,34.53
2019-05-16T20:01:08.787Z,36.43
2019-05-16T20:03:33.922Z,38.63
2019-05-16T20:05:59.054Z,52.03
2019-05-16T20:08:26.689Z,42.40
2019-05-16T20:10:51.242Z,36.87
2019-05-16T20:13:16.703Z,39.10
2019-05-16T20:15:42.867Z,38.23
2019-05-16T20:18:08.045Z,38.33
2019-05-16T20:20:33.169Z,34.50
2019-05-16T20:22:58.289Z,33.03
2019-05-16T20:25:23.409Z,35.90
2019-05-16T20:27:48.535Z,39.07
2019-05-16T20:30:13.845Z,37.03
2019-05-16T20:32:38.989Z,41.67
2019-05-16T20:35:08.515Z,45.07
2019-05-16T20:37:31.034Z,46.67
2019-05-16T20:39:56.403Z,50.33
2019-05-16T20:42:21.698Z,43.23
2019-05-16T20:44:49.679Z,50.60
2019-05-16T20:47:13.863Z,43.43
2019-05-16T20:49:39.591Z,42.13
2019-05-16T20:52:07.075Z,46.00
2019-05-16T20:54:32.321Z,46.63
2019-05-16T20:57:00.616Z,50.47
2019-05-16T20:59:26.757Z,54.00
2019-05-16T21:01:51.876Z,37.73
2019-05-16T21:04:17.607Z,44.87
2019-05-16T21:06:56.782Z,44.57
2019-05-16T21:09:09.470Z,37.10
2019-05-16T21:11:36.957Z,51.97
2019-05-16T21:14:01.381Z,43.23
2019-05-16T21:16:27.047Z,40.43
2019-05-16T21:18:52.241Z,42.53
2019-05-16T21:21:19.411Z,48.17
2019-05-16T21:23:46.998Z,40.93
2019-05-16T21:26:11.886Z,49.97
2019-05-16T21:28:37.060Z,38.47
2019-05-16T21:31:03.250Z,46.43
2019-05-16T21:33:28.354Z,43.00
2019-05-16T21:35:56.511Z,46.50
2019-05-16T21:38:21.283Z,40.83
2019-05-16T21:40:46.776Z,41.00
2019-05-16T21:43:11.969Z,34.23
2019-05-16T21:45:37.307Z,39.33
2019-05-16T21:48:02.699Z,41.30
2019-05-16T21:50:27.798Z,40.13
2019-05-16T21:52:52.890Z,40.00
2019-05-16T21:55:18.193Z,36.97
2019-05-16T21:57:43.566Z,38.97
2019-05-16T22:00:15.265Z,39.10
2019-05-16T22:02:41.989Z,33.33
2019-05-16T22:05:07.317Z,27.63
2019-05-16T22:07:36.470Z,32.97
2019-05-16T22:10:01.639Z,31.33
2019-05-16T22:12:27.231Z,30.37
2019-05-16T22:14:52.790Z,30.60
2019-05-16T22:17:18.952Z,33.53
2019-05-16T22:19:44.064Z,35.27
2019-05-16T22:22:09.218Z,27.80
2019-05-16T22:24:34.330Z,30.13
2019-05-16T22:26:59.438Z,29.53
2019-05-16T22:29:26.381Z,29.40
2019-05-16T22:31:51.374Z,24.27
2019-05-16T22:34:16.971Z,21.90
2019-05-16T22:36:42.202Z,24.97
2019-05-16T22:39:08.022Z,22.47
2019-05-16T22:41:33.130Z,23.40
2019-05-16T22:43:58.232Z,22.00
2019-05-16T22:46:23.361Z,24.67
2019-05-16T22:48:48.462Z,24.47
2019-05-16T22:51:13.587Z,22.23
2019-05-16T22:53:38.694Z,40.23
2019-05-16T22:56:03.791Z,22.80
2019-05-16T22:58:28.926Z,21.03
2019-05-16T23:00:54.167Z,37.43
2019-05-16T23:03:19.294Z,27.60
2019-05-16T23:05:44.387Z,21.20
2019-05-16T23:08:10.134Z,21.80
2019-05-16T23:10:36.770Z,25.27
2019-05-16T23:13:02.084Z,22.67
2019-05-16T23:15:27.281Z,21.73
2019-05-16T23:17:52.385Z,23.33
2019-05-16T23:20:17.598Z,23.93
2019-05-16T23:22:42.698Z,20.20
2019-05-16T23:25:07.938Z,21.23
2019-05-16T23:27:33.050Z,21.10
2019-05-16T23:29:58.169Z,20.60
2019-05-16T23:32:23.286Z,30.63
2019-05-16T23:34:48.386Z,26.50
2019-05-16T23:37:13.524Z,26.43
2019-05-16T23:39:38.626Z,24.37
2019-05-16T23:42:06.225Z,28.87
2019-05-16T23:44:30.465Z,25.80
2019-05-16T23:46:56.342Z,23.73
2019-05-16T23:49:21.487Z,25.33
2019-05-16T23:51:47.315Z,25.80
2019-05-16T23:54:13.482Z,31.43
2019-05-16T23:56:38.614Z,25.03
2019-05-16T23:59:03.742Z,25.30
